Huvudsida
METAR-TAF:

METAR-TAF

Flygplatser :

Heidrun, Norge

latitud: 65-19-30N, longitud: 007-19-36E, höjd: 0 m

Aktuellt väderrapport

Denna rapport gjordes för 34 minuter sedan, klockan 04:20 UTC
Vind 18 kt från nordost
Temperatur 3°C
Fuktighet 56%
Tryck 995 hPa
Sikt 10 km eller mer
Brutna moln på en höjd av 3500 ft
lätta regnskurar, snö

METAR: ENHE 190420Z 05018KT 9999 -SHRASN BKN035 03/M05 Q0995 W///S6

Tid: 05:54 (04:54 UTC)

Väderprognos

Denna rapport gjordes för 2 timmar och 54 minuter sedan, klockan 02:00 UTC
Prognos gäller från 19 kl. 03 UTC till 19 kl. 12 UTC
Vind 25 kt från nord/nordost
Sikt 10 km eller mer
Få moln på en höjd av 1500 ft
Brutna moln på en höjd av 3000 ft
Blir
från 19 kl. 07 UTC till 19 kl. 09 UTC
Vind 15 kt från nord/nordost

TAF: ENHE 190200Z 1903/1912 03025KT 9999 FEW015 BKN030 BECMG 1907/1909 02015KT

Aktuella väderrapporter och prognoser från 4000 flygplatser (METAR- och TAF-rapporter).

De tillgängliga stationerna syns som gula och röda prickar på kartan.

För musen över prickarna för att se namnen på stationerna.

Klicka sedan för att få väderrapporter och prognoser.

För att ändra kartan: Klicka på de gröna knapparna med ett svart kors på för att zooma in; den gröna knappen med ett streck på för att zooma ut; eller på de gröna pilarna för angränsande kartor.


METAR-TAF: